createdAt,value
2022-10-23T00:00:34.897Z,100.00
2022-10-23T00:03:36.978Z,100.00
2022-10-23T00:06:39.735Z,100.00
2022-10-23T00:09:41.699Z,100.00
2022-10-23T00:12:44.685Z,100.00
2022-10-23T00:15:46.888Z,100.00
2022-10-23T00:18:48.934Z,100.00
2022-10-23T00:21:51.441Z,100.00
2022-10-23T00:24:53.611Z,100.00
2022-10-23T00:27:55.584Z,100.00
2022-10-23T00:30:57.676Z,100.00
2022-10-23T00:33:59.800Z,100.00
2022-10-23T00:37:01.853Z,100.00
2022-10-23T00:40:05.025Z,100.00
2022-10-23T00:43:14.046Z,100.00
2022-10-23T00:46:15.963Z,100.00
2022-10-23T00:49:17.956Z,100.00
2022-10-23T00:52:19.946Z,100.00
2022-10-23T00:55:24.439Z,100.00
2022-10-23T00:58:26.583Z,100.00
2022-10-23T01:01:28.674Z,100.00
2022-10-23T01:04:32.121Z,100.00
2022-10-23T01:07:47.086Z,100.00
2022-10-23T01:11:03.562Z,100.00
2022-10-23T01:14:08.165Z,100.00
2022-10-23T01:17:18.244Z,100.00
2022-10-23T01:20:23.225Z,100.00
2022-10-23T01:23:55.584Z,100.00
2022-10-23T01:27:18.523Z,100.00
2022-10-23T01:30:20.729Z,100.00
2022-10-23T01:33:29.329Z,100.00
2022-10-23T01:36:34.404Z,100.00
2022-10-23T01:39:40.833Z,100.00
2022-10-23T01:42:50.595Z,100.00
2022-10-23T01:46:01.811Z,100.00
2022-10-23T01:49:08.064Z,100.00
2022-10-23T01:52:14.103Z,100.00
2022-10-23T01:55:17.571Z,100.00
2022-10-23T01:58:22.133Z,100.00
2022-10-23T02:01:27.984Z,100.00
2022-10-23T02:04:35.930Z,100.00
2022-10-23T02:07:38.082Z,100.00
2022-10-23T02:10:52.054Z,100.00
2022-10-23T02:14:07.556Z,100.00
2022-10-23T02:17:17.037Z,100.00
2022-10-23T02:20:35.922Z,100.00
2022-10-23T02:23:55.324Z,100.00
2022-10-23T02:27:02.736Z,100.00
2022-10-23T02:30:10.273Z,100.00
2022-10-23T02:33:13.667Z,100.00
2022-10-23T02:36:19.666Z,100.00
2022-10-23T02:39:24.672Z,100.00
2022-10-23T02:42:35.315Z,100.00
2022-10-23T02:46:03.723Z,100.00
2022-10-23T02:49:37.873Z,100.00
2022-10-23T02:53:10.525Z,100.00
2022-10-23T02:56:24.296Z,100.00
2022-10-23T02:59:35.721Z,100.00
2022-10-23T03:02:42.305Z,100.00
2022-10-23T03:05:47.670Z,100.00
2022-10-23T03:08:54.111Z,100.00
2022-10-23T03:11:56.044Z,100.00
2022-10-23T03:14:57.989Z,100.00
2022-10-23T03:18:00.045Z,100.00
2022-10-23T03:21:01.993Z,100.00
2022-10-23T03:24:04.177Z,100.00
2022-10-23T03:27:06.097Z,100.00
2022-10-23T03:30:08.728Z,100.00
2022-10-23T03:33:10.836Z,100.00
2022-10-23T03:36:12.977Z,100.00
2022-10-23T03:39:14.996Z,100.00
2022-10-23T03:42:17.121Z,100.00
2022-10-23T03:45:19.257Z,100.00
2022-10-23T03:48:21.353Z,100.00
2022-10-23T03:51:23.372Z,100.00
2022-10-23T03:54:26.906Z,100.00
2022-10-23T03:57:28.968Z,100.00
2022-10-23T04:00:31.055Z,100.00
2022-10-23T04:03:33.062Z,100.00
2022-10-23T04:06:35.413Z,100.00
2022-10-23T04:09:37.442Z,100.00
2022-10-23T04:12:39.713Z,100.00
2022-10-23T04:15:48.406Z,100.00
2022-10-23T04:18:50.602Z,100.00
2022-10-23T04:21:52.601Z,100.00
2022-10-23T04:24:54.565Z,100.00
2022-10-23T04:27:56.559Z,100.00
2022-10-23T04:30:58.578Z,100.00
2022-10-23T04:34:00.653Z,100.00
2022-10-23T04:37:02.710Z,100.00
2022-10-23T04:40:04.968Z,100.00
2022-10-23T04:43:13.352Z,100.00
2022-10-23T04:46:15.373Z,100.00
2022-10-23T04:49:17.387Z,100.00
2022-10-23T04:52:19.383Z,100.00
2022-10-23T04:55:21.481Z,100.00
2022-10-23T04:58:24.399Z,100.00
2022-10-23T05:01:26.531Z,100.00
2022-10-23T05:04:28.529Z,100.00
2022-10-23T05:07:30.528Z,100.00
2022-10-23T05:10:32.621Z,100.00
2022-10-23T05:13:35.522Z,100.00
2022-10-23T05:16:43.212Z,100.00
2022-10-23T05:19:53.106Z,100.00
2022-10-23T05:22:57.156Z,100.00
2022-10-23T05:25:59.888Z,100.00
2022-10-23T05:29:01.906Z,100.00
2022-10-23T05:32:06.877Z,100.00
2022-10-23T05:35:12.913Z,100.00
2022-10-23T05:38:15.669Z,100.00
2022-10-23T05:41:17.823Z,100.00
2022-10-23T05:44:19.914Z,100.00
2022-10-23T05:47:21.843Z,100.00
2022-10-23T05:50:23.992Z,100.00
2022-10-23T05:53:25.921Z,100.00
2022-10-23T05:56:27.948Z,100.00
2022-10-23T05:59:29.997Z,100.00
2022-10-23T06:02:33.042Z,100.00
2022-10-23T06:05:35.015Z,100.00
2022-10-23T06:08:37.157Z,100.00
2022-10-23T06:11:39.139Z,100.00
2022-10-23T06:14:41.097Z,100.00
2022-10-23T06:17:43.150Z,100.00
2022-10-23T06:20:45.232Z,100.00
2022-10-23T06:23:48.093Z,100.00
2022-10-23T06:26:50.058Z,100.00
2022-10-23T06:29:52.266Z,100.00
2022-10-23T06:32:54.157Z,100.00
2022-10-23T06:35:56.761Z,100.00
2022-10-23T06:42:01.686Z,100.00
2022-10-23T06:45:06.375Z,100.00
2022-10-23T06:48:09.149Z,100.00
2022-10-23T06:51:13.760Z,100.00
2022-10-23T06:54:15.725Z,100.00
2022-10-23T06:57:17.706Z,100.00
2022-10-23T07:00:21.644Z,100.00
2022-10-23T07:03:23.656Z,100.00
2022-10-23T07:06:25.568Z,100.00
2022-10-23T07:09:27.617Z,100.00
2022-10-23T07:12:29.715Z,100.00
2022-10-23T07:15:31.678Z,100.00
2022-10-23T07:21:40.495Z,100.00
2022-10-23T07:24:42.545Z,100.00
2022-10-23T07:27:44.771Z,100.00
2022-10-23T07:30:56.780Z,100.00
2022-10-23T07:33:59.026Z,100.00
2022-10-23T07:37:01.040Z,100.00
2022-10-23T07:40:07.433Z,100.00
2022-10-23T07:43:09.352Z,100.00
2022-10-23T07:46:11.333Z,100.00
2022-10-23T07:49:13.375Z,100.00
2022-10-23T07:52:15.330Z,100.00
2022-10-23T07:55:17.973Z,100.00
2022-10-23T07:58:20.245Z,100.00
2022-10-23T08:01:32.715Z,100.00
2022-10-23T08:04:34.901Z,100.00
2022-10-23T08:07:37.018Z,100.00
2022-10-23T08:10:41.626Z,99.99
2022-10-23T08:13:44.409Z,99.60
2022-10-23T08:16:46.765Z,99.08
2022-10-23T08:19:48.978Z,98.72
2022-10-23T08:22:51.677Z,98.48
2022-10-23T08:26:01.551Z,97.75
2022-10-23T08:29:03.536Z,97.51
2022-10-23T08:32:05.710Z,97.82
2022-10-23T08:35:07.961Z,95.80
2022-10-23T08:38:10.711Z,95.00
2022-10-23T08:41:25.153Z,95.31
2022-10-23T08:44:35.544Z,92.54
2022-10-23T08:47:51.084Z,93.34
2022-10-23T08:50:59.466Z,91.93
2022-10-23T08:54:22.989Z,91.40
2022-10-23T08:57:33.300Z,91.29
2022-10-23T09:00:35.691Z,89.62
2022-10-23T09:03:37.724Z,88.80
2022-10-23T09:06:41.980Z,90.18
2022-10-23T09:10:17.698Z,91.05
2022-10-23T09:13:45.444Z,91.97
2022-10-23T09:17:19.015Z,91.43
2022-10-23T09:20:24.210Z,91.71
2022-10-23T09:23:26.159Z,92.10
2022-10-23T09:26:28.121Z,92.56
2022-10-23T09:29:33.226Z,92.66
2022-10-23T09:32:37.751Z,92.86
2022-10-23T09:35:40.129Z,93.14
2022-10-23T09:38:45.335Z,93.38
2022-10-23T09:41:47.280Z,93.83
2022-10-23T09:44:52.270Z,93.24
2022-10-23T09:48:12.241Z,93.65
2022-10-23T09:51:21.869Z,94.13
2022-10-23T09:54:24.292Z,93.88
2022-10-23T09:57:32.442Z,94.01
2022-10-23T10:00:34.408Z,93.31
2022-10-23T10:03:37.634Z,93.47
2022-10-23T10:09:48.488Z,94.08
2022-10-23T10:12:58.404Z,93.95
2022-10-23T10:16:19.306Z,93.61
2022-10-23T10:20:02.369Z,94.02
2022-10-23T10:23:22.346Z,94.47
2022-10-23T10:27:11.608Z,94.17
2022-10-23T10:30:19.115Z,93.95
2022-10-23T10:34:21.986Z,93.87
2022-10-23T10:38:01.252Z,93.45
2022-10-23T10:41:09.239Z,93.51
2022-10-23T10:44:29.811Z,93.10
2022-10-23T10:48:09.733Z,92.58
2022-10-23T10:51:34.557Z,92.76
2022-10-23T10:54:58.129Z,92.36
2022-10-23T10:58:06.152Z,92.60
2022-10-23T11:01:27.610Z,92.88
2022-10-23T11:04:40.565Z,92.36
2022-10-23T11:08:01.568Z,92.80
2022-10-23T11:11:37.697Z,92.64
2022-10-23T11:14:42.853Z,92.69
2022-10-23T11:17:50.335Z,92.46
2022-10-23T11:21:29.820Z,91.57
2022-10-23T11:24:40.661Z,91.12
2022-10-23T11:28:12.034Z,90.64
2022-10-23T11:31:26.016Z,89.63
2022-10-23T11:34:43.470Z,89.29
2022-10-23T11:37:45.619Z,89.36
2022-10-23T11:44:05.740Z,89.38
2022-10-23T11:47:40.002Z,89.41
2022-10-23T11:50:45.626Z,87.95
2022-10-23T11:53:48.754Z,86.04
2022-10-23T11:57:14.234Z,84.79
2022-10-23T12:00:23.347Z,83.90
2022-10-23T12:03:51.837Z,81.27
2022-10-23T12:07:01.437Z,80.05
2022-10-23T12:10:07.627Z,79.71
2022-10-23T12:13:43.577Z,78.92
2022-10-23T12:16:46.043Z,80.34
2022-10-23T12:20:10.003Z,80.43
2022-10-23T12:23:30.820Z,78.01
2022-10-23T12:26:51.537Z,76.24
2022-10-23T12:30:23.094Z,75.94
2022-10-23T12:33:28.855Z,75.73
2022-10-23T12:36:51.277Z,75.26
2022-10-23T12:39:55.574Z,71.96
2022-10-23T12:43:00.119Z,70.68
2022-10-23T12:46:27.995Z,70.59
2022-10-23T12:49:33.774Z,70.78
2022-10-23T12:52:39.760Z,71.28
2022-10-23T12:55:50.275Z,71.50
2022-10-23T12:58:56.676Z,70.62
2022-10-23T13:01:59.160Z,70.92
2022-10-23T13:05:05.573Z,70.09
2022-10-23T13:08:11.074Z,69.80
2022-10-23T13:11:19.815Z,69.34
2022-10-23T13:14:34.746Z,70.69
2022-10-23T13:17:44.873Z,70.22
2022-10-23T13:20:51.624Z,71.89
2022-10-23T13:23:55.072Z,72.88
2022-10-23T13:26:58.769Z,73.24
2022-10-23T13:30:03.996Z,73.21
2022-10-23T13:33:26.230Z,72.89
2022-10-23T13:36:31.928Z,74.34
2022-10-23T13:39:34.972Z,73.73
2022-10-23T13:42:37.579Z,73.13
2022-10-23T13:45:41.162Z,72.66
2022-10-23T13:48:44.562Z,72.63
2022-10-23T13:51:53.826Z,73.18
2022-10-23T13:54:56.332Z,74.12
2022-10-23T13:57:58.780Z,74.23
2022-10-23T14:01:01.880Z,74.22
2022-10-23T14:04:06.984Z,75.21
2022-10-23T14:07:09.602Z,75.97
2022-10-23T14:10:12.837Z,76.40
2022-10-23T14:13:16.599Z,76.27
2022-10-23T14:16:23.838Z,76.21
2022-10-23T14:19:26.810Z,76.00
2022-10-23T14:22:29.561Z,75.42
2022-10-23T14:25:33.198Z,75.96
2022-10-23T14:28:36.878Z,76.45
2022-10-23T14:31:40.948Z,77.38
2022-10-23T14:34:46.176Z,77.71
2022-10-23T14:37:48.782Z,77.53
2022-10-23T14:40:52.547Z,78.37
2022-10-23T14:43:55.572Z,78.75
2022-10-23T14:46:59.712Z,78.74
2022-10-23T14:50:02.326Z,78.99
2022-10-23T14:53:08.148Z,79.15
2022-10-23T14:56:11.135Z,79.05
2022-10-23T14:59:15.632Z,79.20
2022-10-23T15:02:21.633Z,79.69
2022-10-23T15:05:25.662Z,80.16
2022-10-23T15:08:29.580Z,80.32
2022-10-23T15:11:33.207Z,80.65
2022-10-23T15:14:35.793Z,81.20
2022-10-23T15:17:39.881Z,81.55
2022-10-23T15:20:51.305Z,81.97
2022-10-23T15:23:54.956Z,82.44
2022-10-23T15:26:57.495Z,82.59
2022-10-23T15:30:01.936Z,82.92
2022-10-23T15:33:05.654Z,83.42
2022-10-23T15:36:09.759Z,83.82
2022-10-23T15:39:15.704Z,84.05
2022-10-23T15:42:19.864Z,84.73
2022-10-23T15:45:25.497Z,85.17
2022-10-23T15:48:30.555Z,85.30
2022-10-23T15:51:33.152Z,86.10
2022-10-23T15:54:36.144Z,86.67
2022-10-23T15:57:42.094Z,87.02
2022-10-23T16:00:46.717Z,87.52
2022-10-23T16:03:50.714Z,88.17
2022-10-23T16:06:53.718Z,88.46
2022-10-23T16:09:56.386Z,88.83
2022-10-23T16:13:00.617Z,88.85
2022-10-23T16:16:04.856Z,89.19
2022-10-23T16:19:07.942Z,89.65
2022-10-23T16:22:11.902Z,89.38
2022-10-23T16:25:15.670Z,90.05
2022-10-23T16:28:19.592Z,90.29
2022-10-23T16:31:25.277Z,90.23
2022-10-23T16:34:28.312Z,90.93
2022-10-23T16:37:31.445Z,90.57
2022-10-23T16:40:36.136Z,91.38
2022-10-23T16:43:41.064Z,91.48
2022-10-23T16:46:45.865Z,91.44
2022-10-23T16:49:49.555Z,91.78
2022-10-23T16:52:55.509Z,91.80
2022-10-23T16:56:01.133Z,92.14
2022-10-23T16:59:04.881Z,92.30
2022-10-23T17:02:12.085Z,92.77
2022-10-23T17:05:18.433Z,92.82
2022-10-23T17:08:23.512Z,93.14
2022-10-23T17:11:33.981Z,92.96
2022-10-23T17:14:41.927Z,93.13
2022-10-23T17:17:46.481Z,93.06
2022-10-23T17:20:57.278Z,93.24
2022-10-23T17:27:12.595Z,92.84
2022-10-23T17:30:15.747Z,92.45
2022-10-23T17:33:19.447Z,92.42
2022-10-23T17:36:23.049Z,92.51
2022-10-23T17:39:29.582Z,92.29
2022-10-23T17:42:32.946Z,92.25
2022-10-23T17:45:36.305Z,92.14
2022-10-23T17:48:42.323Z,92.08
2022-10-23T17:51:45.870Z,92.07
2022-10-23T17:54:52.657Z,92.15
2022-10-23T17:57:58.024Z,92.28
2022-10-23T18:01:09.069Z,92.28
2022-10-23T18:04:13.775Z,92.43
2022-10-23T18:07:18.275Z,92.39
2022-10-23T18:10:21.364Z,92.62
2022-10-23T18:13:24.460Z,92.86
2022-10-23T18:16:30.772Z,93.03
2022-10-23T18:19:34.765Z,93.24
2022-10-23T18:22:38.574Z,93.08
2022-10-23T18:25:43.713Z,93.18
2022-10-23T18:28:49.785Z,93.08
2022-10-23T18:31:52.843Z,93.02
2022-10-23T18:34:56.975Z,92.67
2022-10-23T18:38:00.446Z,92.56
2022-10-23T18:41:04.059Z,92.17
2022-10-23T18:44:08.127Z,92.04
2022-10-23T18:47:11.354Z,91.96
2022-10-23T18:50:15.890Z,91.83
2022-10-23T18:53:21.331Z,91.41
2022-10-23T18:56:27.216Z,91.03
2022-10-23T18:59:31.687Z,91.11
2022-10-23T19:02:37.042Z,90.73
2022-10-23T19:05:44.720Z,90.40
2022-10-23T19:08:49.164Z,90.15
2022-10-23T19:11:52.363Z,90.03
2022-10-23T19:14:56.373Z,89.94
2022-10-23T19:18:00.420Z,89.82
2022-10-23T19:21:06.582Z,89.82
2022-10-23T19:24:16.028Z,89.68
2022-10-23T19:27:20.555Z,89.67
2022-10-23T19:30:25.025Z,89.48
2022-10-23T19:33:28.032Z,89.52
2022-10-23T19:36:33.352Z,89.51
2022-10-23T19:39:40.018Z,89.39
2022-10-23T19:42:44.532Z,89.54
2022-10-23T19:45:48.041Z,89.64
2022-10-23T19:48:51.173Z,89.57
2022-10-23T19:51:55.222Z,89.59
2022-10-23T19:55:02.485Z,89.62
2022-10-23T19:58:06.083Z,89.64
2022-10-23T20:01:15.465Z,89.72
2022-10-23T20:04:19.140Z,89.74
2022-10-23T20:07:22.873Z,89.85
2022-10-23T20:10:26.460Z,90.03
2022-10-23T20:13:29.472Z,90.09
2022-10-23T20:16:36.492Z,90.24
2022-10-23T20:19:39.195Z,90.47
2022-10-23T20:22:44.160Z,90.50
2022-10-23T20:25:47.363Z,90.52
2022-10-23T20:28:53.876Z,90.25
2022-10-23T20:31:57.892Z,90.16
2022-10-23T20:35:01.027Z,89.95
2022-10-23T20:38:04.394Z,89.62
2022-10-23T20:41:07.869Z,89.35
2022-10-23T20:44:13.725Z,89.29
2022-10-23T20:47:16.614Z,89.29
2022-10-23T20:50:19.617Z,89.35
2022-10-23T20:53:22.571Z,89.37
2022-10-23T20:56:33.489Z,89.61
2022-10-23T20:59:35.595Z,89.31
2022-10-23T21:02:37.792Z,89.43
2022-10-23T21:05:39.900Z,89.22
2022-10-23T21:08:42.748Z,89.39
2022-10-23T21:11:44.805Z,89.56
2022-10-23T21:14:46.796Z,89.50
2022-10-23T21:17:50.649Z,89.57
2022-10-23T21:20:54.198Z,89.58
2022-10-23T21:23:59.609Z,89.59
2022-10-23T21:27:01.788Z,89.64
2022-10-23T21:30:06.230Z,89.83
2022-10-23T21:33:08.515Z,89.78
2022-10-23T21:36:17.198Z,89.77
2022-10-23T21:39:19.549Z,89.76
2022-10-23T21:42:21.570Z,89.87
2022-10-23T21:45:24.127Z,89.69
2022-10-23T21:48:26.089Z,89.70
2022-10-23T21:51:31.554Z,89.95
2022-10-23T21:54:33.667Z,90.15
2022-10-23T21:57:35.714Z,90.32
2022-10-23T22:00:37.784Z,90.51
2022-10-23T22:03:39.793Z,90.69
2022-10-23T22:06:43.477Z,90.96
2022-10-23T22:09:45.441Z,91.12
2022-10-23T22:12:47.366Z,91.19
2022-10-23T22:15:49.308Z,91.47
2022-10-23T22:18:51.735Z,91.58
2022-10-23T22:21:54.225Z,91.65
2022-10-23T22:24:56.208Z,91.84
2022-10-23T22:27:58.443Z,91.98
2022-10-23T22:31:01.514Z,92.11
2022-10-23T22:34:18.633Z,92.08
2022-10-23T22:37:28.651Z,91.94
2022-10-23T22:40:30.695Z,92.06
2022-10-23T22:43:32.709Z,92.06
2022-10-23T22:46:34.767Z,91.99
2022-10-23T22:49:38.490Z,91.79
2022-10-23T22:52:40.445Z,91.71
2022-10-23T22:55:43.215Z,91.80
2022-10-23T22:58:46.109Z,91.54
2022-10-23T23:01:49.205Z,91.69
2022-10-23T23:04:51.149Z,91.74
2022-10-23T23:07:53.092Z,91.76
2022-10-23T23:10:56.781Z,91.73
2022-10-23T23:13:59.809Z,91.69
2022-10-23T23:17:02.012Z,91.74
2022-10-23T23:20:04.340Z,91.83
2022-10-23T23:23:06.462Z,91.69
2022-10-23T23:26:08.615Z,91.79
2022-10-23T23:29:10.543Z,91.68
2022-10-23T23:32:12.500Z,91.63
2022-10-23T23:35:14.592Z,91.48
2022-10-23T23:38:16.508Z,91.41
2022-10-23T23:41:20.269Z,91.41
2022-10-23T23:44:22.205Z,91.56
2022-10-23T23:47:24.426Z,91.85
2022-10-23T23:50:28.029Z,91.97
2022-10-23T23:53:30.136Z,91.96
2022-10-23T23:56:32.146Z,91.79
2022-10-23T23:59:41.937Z,91.64
